sensor_id;sensor_type;location;lat;lon;timestamp;P1;durP1;ratioP1;P2;durP2;ratioP2
22786;SDS011;63134;52.020;4.714;2023-08-07T00:01:35;9.88;;;2.90;;
22786;SDS011;63134;52.020;4.714;2023-08-07T00:04:21;15.77;;;3.08;;
22786;SDS011;63134;52.020;4.714;2023-08-07T00:07:06;12.38;;;3.28;;
22786;SDS011;63134;52.020;4.714;2023-08-07T00:09:52;8.30;;;3.15;;
22786;SDS011;63134;52.020;4.714;2023-08-07T00:12:38;16.83;;;3.22;;
22786;SDS011;63134;52.020;4.714;2023-08-07T00:15:24;12.85;;;3.13;;
22786;SDS011;63134;52.020;4.714;2023-08-07T00:18:09;13.73;;;3.67;;
22786;SDS011;63134;52.020;4.714;2023-08-07T00:20:55;10.48;;;3.08;;
22786;SDS011;63134;52.020;4.714;2023-08-07T00:23:41;10.98;;;3.03;;
22786;SDS011;63134;52.020;4.714;2023-08-07T00:26:27;15.98;;;3.75;;
22786;SDS011;63134;52.020;4.714;2023-08-07T00:29:12;13.82;;;3.00;;
22786;SDS011;63134;52.020;4.714;2023-08-07T00:31:58;12.77;;;3.22;;
22786;SDS011;63134;52.020;4.714;2023-08-07T00:34:43;7.10;;;2.70;;
22786;SDS011;63134;52.020;4.714;2023-08-07T00:37:30;9.50;;;3.25;;
22786;SDS011;63134;52.020;4.714;2023-08-07T00:40:16;9.80;;;3.42;;
22786;SDS011;63134;52.020;4.714;2023-08-07T00:43:02;16.15;;;3.65;;
22786;SDS011;63134;52.020;4.714;2023-08-07T00:45:47;12.10;;;4.15;;
22786;SDS011;63134;52.020;4.714;2023-08-07T00:48:33;11.38;;;3.55;;
22786;SDS011;63134;52.020;4.714;2023-08-07T00:51:19;14.15;;;4.00;;
22786;SDS011;63134;52.020;4.714;2023-08-07T00:54:05;9.95;;;3.08;;
22786;SDS011;63134;52.020;4.714;2023-08-07T00:56:52;10.70;;;3.15;;
22786;SDS011;63134;52.020;4.714;2023-08-07T00:59:39;6.88;;;2.97;;
22786;SDS011;63134;52.020;4.714;2023-08-07T01:02:25;8.82;;;2.88;;
22786;SDS011;63134;52.020;4.714;2023-08-07T01:05:11;7.78;;;2.80;;
22786;SDS011;63134;52.020;4.714;2023-08-07T01:07:56;7.20;;;2.70;;
22786;SDS011;63134;52.020;4.714;2023-08-07T01:14:13;7.03;;;2.53;;
22786;SDS011;63134;52.020;4.714;2023-08-07T01:17:16;11.30;;;3.05;;
22786;SDS011;63134;52.020;4.714;2023-08-07T01:20:05;12.07;;;3.10;;
22786;SDS011;63134;52.020;4.714;2023-08-07T01:22:51;6.32;;;3.10;;
22786;SDS011;63134;52.020;4.714;2023-08-07T01:25:40;11.82;;;3.42;;
22786;SDS011;63134;52.020;4.714;2023-08-07T01:28:33;11.35;;;3.83;;
22786;SDS011;63134;52.020;4.714;2023-08-07T01:31:24;10.30;;;3.70;;
22786;SDS011;63134;52.020;4.714;2023-08-07T01:34:11;13.77;;;4.05;;
22786;SDS011;63134;52.020;4.714;2023-08-07T01:36:59;10.52;;;3.67;;
22786;SDS011;63134;52.020;4.714;2023-08-07T01:39:47;21.92;;;4.15;;
22786;SDS011;63134;52.020;4.714;2023-08-07T01:42:34;18.67;;;4.28;;
22786;SDS011;63134;52.020;4.714;2023-08-07T01:45:27;19.42;;;4.80;;
22786;SDS011;63134;52.020;4.714;2023-08-07T01:48:13;14.10;;;4.15;;
22786;SDS011;63134;52.020;4.714;2023-08-07T01:51:04;13.05;;;4.25;;
22786;SDS011;63134;52.020;4.714;2023-08-07T01:53:50;16.45;;;4.00;;
22786;SDS011;63134;52.020;4.714;2023-08-07T01:56:35;11.75;;;3.72;;
22786;SDS011;63134;52.020;4.714;2023-08-07T01:59:21;13.60;;;3.75;;
22786;SDS011;63134;52.020;4.714;2023-08-07T02:02:06;15.35;;;3.80;;
22786;SDS011;63134;52.020;4.714;2023-08-07T02:04:52;14.02;;;4.13;;
22786;SDS011;63134;52.020;4.714;2023-08-07T02:07:37;14.38;;;3.45;;
22786;SDS011;63134;52.020;4.714;2023-08-07T02:10:23;14.45;;;3.88;;
22786;SDS011;63134;52.020;4.714;2023-08-07T02:13:08;10.57;;;3.22;;
22786;SDS011;63134;52.020;4.714;2023-08-07T02:15:54;18.67;;;4.35;;
22786;SDS011;63134;52.020;4.714;2023-08-07T02:18:40;13.02;;;3.45;;
22786;SDS011;63134;52.020;4.714;2023-08-07T02:21:25;18.27;;;4.25;;
22786;SDS011;63134;52.020;4.714;2023-08-07T02:24:17;14.13;;;3.75;;
22786;SDS011;63134;52.020;4.714;2023-08-07T02:27:05;10.65;;;3.20;;
22786;SDS011;63134;52.020;4.714;2023-08-07T02:29:51;13.73;;;4.75;;
22786;SDS011;63134;52.020;4.714;2023-08-07T02:32:36;10.50;;;3.42;;
22786;SDS011;63134;52.020;4.714;2023-08-07T02:35:21;10.23;;;3.90;;
22786;SDS011;63134;52.020;4.714;2023-08-07T02:38:08;16.65;;;4.55;;
22786;SDS011;63134;52.020;4.714;2023-08-07T02:40:54;9.02;;;3.45;;
22786;SDS011;63134;52.020;4.714;2023-08-07T02:43:40;14.35;;;3.80;;
22786;SDS011;63134;52.020;4.714;2023-08-07T02:46:28;13.38;;;3.17;;
22786;SDS011;63134;52.020;4.714;2023-08-07T02:49:13;12.38;;;4.00;;
22786;SDS011;63134;52.020;4.714;2023-08-07T02:51:59;15.65;;;5.00;;
22786;SDS011;63134;52.020;4.714;2023-08-07T02:54:45;13.02;;;3.75;;
22786;SDS011;63134;52.020;4.714;2023-08-07T02:57:30;16.20;;;3.85;;
22786;SDS011;63134;52.020;4.714;2023-08-07T03:00:16;11.05;;;2.97;;
22786;SDS011;63134;52.020;4.714;2023-08-07T03:03:02;11.30;;;3.13;;
22786;SDS011;63134;52.020;4.714;2023-08-07T03:05:51;8.27;;;2.95;;
22786;SDS011;63134;52.020;4.714;2023-08-07T03:08:36;13.10;;;3.03;;
22786;SDS011;63134;52.020;4.714;2023-08-07T03:11:25;13.85;;;3.38;;
22786;SDS011;63134;52.020;4.714;2023-08-07T03:14:10;4.55;;;2.28;;
22786;SDS011;63134;52.020;4.714;2023-08-07T03:16:56;8.27;;;3.03;;
22786;SDS011;63134;52.020;4.714;2023-08-07T03:19:42;9.35;;;2.50;;
22786;SDS011;63134;52.020;4.714;2023-08-07T03:22:30;8.75;;;2.42;;
22786;SDS011;63134;52.020;4.714;2023-08-07T03:25:15;10.93;;;2.58;;
22786;SDS011;63134;52.020;4.714;2023-08-07T03:28:01;16.02;;;3.60;;
22786;SDS011;63134;52.020;4.714;2023-08-07T03:30:47;6.18;;;2.45;;
22786;SDS011;63134;52.020;4.714;2023-08-07T03:33:33;11.13;;;3.55;;
22786;SDS011;63134;52.020;4.714;2023-08-07T03:36:19;13.32;;;3.33;;
22786;SDS011;63134;52.020;4.714;2023-08-07T03:39:07;10.85;;;3.38;;
22786;SDS011;63134;52.020;4.714;2023-08-07T03:41:54;13.23;;;3.42;;
22786;SDS011;63134;52.020;4.714;2023-08-07T03:44:40;12.93;;;3.45;;
22786;SDS011;63134;52.020;4.714;2023-08-07T03:47:26;9.43;;;3.47;;
22786;SDS011;63134;52.020;4.714;2023-08-07T03:50:12;13.35;;;3.60;;
22786;SDS011;63134;52.020;4.714;2023-08-07T03:52:58;11.93;;;3.65;;
22786;SDS011;63134;52.020;4.714;2023-08-07T03:55:49;10.65;;;3.28;;
22786;SDS011;63134;52.020;4.714;2023-08-07T03:58:38;16.98;;;3.72;;
22786;SDS011;63134;52.020;4.714;2023-08-07T04:01:24;12.80;;;4.00;;
22786;SDS011;63134;52.020;4.714;2023-08-07T04:04:10;9.70;;;3.35;;
22786;SDS011;63134;52.020;4.714;2023-08-07T04:06:56;9.48;;;2.88;;
22786;SDS011;63134;52.020;4.714;2023-08-07T04:09:41;15.90;;;3.65;;
22786;SDS011;63134;52.020;4.714;2023-08-07T04:12:27;17.70;;;3.88;;
22786;SDS011;63134;52.020;4.714;2023-08-07T04:15:13;17.45;;;3.47;;
22786;SDS011;63134;52.020;4.714;2023-08-07T04:17:59;13.55;;;3.50;;
22786;SDS011;63134;52.020;4.714;2023-08-07T04:20:49;17.75;;;4.03;;
22786;SDS011;63134;52.020;4.714;2023-08-07T04:23:37;15.18;;;4.03;;
22786;SDS011;63134;52.020;4.714;2023-08-07T04:26:26;13.27;;;3.55;;
22786;SDS011;63134;52.020;4.714;2023-08-07T04:29:12;20.10;;;4.95;;
22786;SDS011;63134;52.020;4.714;2023-08-07T04:31:58;16.88;;;4.32;;
22786;SDS011;63134;52.020;4.714;2023-08-07T04:34:43;13.93;;;3.45;;
22786;SDS011;63134;52.020;4.714;2023-08-07T04:37:29;15.32;;;4.13;;
22786;SDS011;63134;52.020;4.714;2023-08-07T04:40:15;17.00;;;3.97;;
22786;SDS011;63134;52.020;4.714;2023-08-07T04:43:01;10.65;;;3.47;;
22786;SDS011;63134;52.020;4.714;2023-08-07T04:45:47;12.88;;;3.85;;
22786;SDS011;63134;52.020;4.714;2023-08-07T04:48:32;15.20;;;4.18;;
22786;SDS011;63134;52.020;4.714;2023-08-07T04:51:18;17.40;;;3.35;;
22786;SDS011;63134;52.020;4.714;2023-08-07T04:54:04;11.38;;;3.20;;
22786;SDS011;63134;52.020;4.714;2023-08-07T04:56:49;13.55;;;3.15;;
22786;SDS011;63134;52.020;4.714;2023-08-07T04:59:35;12.38;;;3.03;;
22786;SDS011;63134;52.020;4.714;2023-08-07T05:02:20;12.70;;;2.88;;
22786;SDS011;63134;52.020;4.714;2023-08-07T05:05:06;18.00;;;3.45;;
22786;SDS011;63134;52.020;4.714;2023-08-07T05:07:54;18.38;;;3.47;;
22786;SDS011;63134;52.020;4.714;2023-08-07T05:10:40;10.90;;;2.83;;
22786;SDS011;63134;52.020;4.714;2023-08-07T05:13:26;10.85;;;3.78;;
22786;SDS011;63134;52.020;4.714;2023-08-07T05:16:11;13.82;;;3.97;;
22786;SDS011;63134;52.020;4.714;2023-08-07T05:18:56;12.68;;;3.25;;
22786;SDS011;63134;52.020;4.714;2023-08-07T05:21:42;10.55;;;3.30;;
22786;SDS011;63134;52.020;4.714;2023-08-07T05:24:27;10.27;;;2.85;;
22786;SDS011;63134;52.020;4.714;2023-08-07T05:27:13;6.70;;;2.30;;
22786;SDS011;63134;52.020;4.714;2023-08-07T05:29:59;15.05;;;3.10;;
22786;SDS011;63134;52.020;4.714;2023-08-07T05:32:48;11.77;;;3.75;;
22786;SDS011;63134;52.020;4.714;2023-08-07T05:35:33;9.45;;;3.25;;
22786;SDS011;63134;52.020;4.714;2023-08-07T05:38:19;12.13;;;3.25;;
22786;SDS011;63134;52.020;4.714;2023-08-07T05:41:05;10.07;;;3.45;;
22786;SDS011;63134;52.020;4.714;2023-08-07T05:43:50;9.10;;;3.25;;
22786;SDS011;63134;52.020;4.714;2023-08-07T05:46:35;10.85;;;3.03;;
22786;SDS011;63134;52.020;4.714;2023-08-07T05:49:21;14.55;;;4.07;;
22786;SDS011;63134;52.020;4.714;2023-08-07T05:52:10;11.35;;;3.30;;
22786;SDS011;63134;52.020;4.714;2023-08-07T05:54:55;19.45;;;4.07;;
22786;SDS011;63134;52.020;4.714;2023-08-07T05:57:41;12.40;;;3.85;;
22786;SDS011;63134;52.020;4.714;2023-08-07T06:00:26;17.98;;;3.88;;
22786;SDS011;63134;52.020;4.714;2023-08-07T06:03:13;12.48;;;3.70;;
22786;SDS011;63134;52.020;4.714;2023-08-07T06:05:58;9.93;;;3.28;;
22786;SDS011;63134;52.020;4.714;2023-08-07T06:08:44;11.45;;;3.72;;
22786;SDS011;63134;52.020;4.714;2023-08-07T06:11:29;5.72;;;2.67;;
22786;SDS011;63134;52.020;4.714;2023-08-07T06:14:15;10.30;;;3.20;;
22786;SDS011;63134;52.020;4.714;2023-08-07T06:17:01;10.73;;;3.15;;
22786;SDS011;63134;52.020;4.714;2023-08-07T06:19:47;7.32;;;2.95;;
22786;SDS011;63134;52.020;4.714;2023-08-07T06:22:33;9.55;;;3.25;;
22786;SDS011;63134;52.020;4.714;2023-08-07T06:25:19;10.25;;;3.08;;
22786;SDS011;63134;52.020;4.714;2023-08-07T06:28:04;14.60;;;3.50;;
22786;SDS011;63134;52.020;4.714;2023-08-07T06:30:50;11.48;;;3.20;;
22786;SDS011;63134;52.020;4.714;2023-08-07T06:33:35;9.32;;;3.40;;
22786;SDS011;63134;52.020;4.714;2023-08-07T06:36:21;12.65;;;3.40;;
22786;SDS011;63134;52.020;4.714;2023-08-07T06:39:10;11.25;;;2.95;;
22786;SDS011;63134;52.020;4.714;2023-08-07T06:41:55;6.72;;;2.75;;
22786;SDS011;63134;52.020;4.714;2023-08-07T06:44:47;13.45;;;3.83;;
22786;SDS011;63134;52.020;4.714;2023-08-07T06:47:32;9.32;;;3.42;;
22786;SDS011;63134;52.020;4.714;2023-08-07T06:50:18;9.05;;;4.05;;
22786;SDS011;63134;52.020;4.714;2023-08-07T06:53:03;13.85;;;4.78;;
22786;SDS011;63134;52.020;4.714;2023-08-07T06:55:49;11.57;;;4.00;;
22786;SDS011;63134;52.020;4.714;2023-08-07T06:58:34;17.95;;;3.80;;
22786;SDS011;63134;52.020;4.714;2023-08-07T07:01:20;11.32;;;3.70;;
22786;SDS011;63134;52.020;4.714;2023-08-07T07:04:06;12.63;;;3.75;;
22786;SDS011;63134;52.020;4.714;2023-08-07T07:06:52;14.15;;;3.67;;
22786;SDS011;63134;52.020;4.714;2023-08-07T07:09:38;18.35;;;4.00;;
22786;SDS011;63134;52.020;4.714;2023-08-07T07:12:27;12.93;;;3.30;;
22786;SDS011;63134;52.020;4.714;2023-08-07T07:15:13;9.55;;;3.05;;
22786;SDS011;63134;52.020;4.714;2023-08-07T07:17:58;11.88;;;3.33;;
22786;SDS011;63134;52.020;4.714;2023-08-07T07:20:45;13.65;;;3.40;;
22786;SDS011;63134;52.020;4.714;2023-08-07T07:23:30;8.52;;;3.15;;
22786;SDS011;63134;52.020;4.714;2023-08-07T07:26:16;10.23;;;2.75;;
22786;SDS011;63134;52.020;4.714;2023-08-07T07:29:02;9.48;;;3.38;;
22786;SDS011;63134;52.020;4.714;2023-08-07T07:31:47;12.68;;;2.80;;
22786;SDS011;63134;52.020;4.714;2023-08-07T07:34:38;7.53;;;3.00;;
22786;SDS011;63134;52.020;4.714;2023-08-07T07:37:23;12.88;;;3.30;;
22786;SDS011;63134;52.020;4.714;2023-08-07T07:40:09;11.27;;;2.72;;
22786;SDS011;63134;52.020;4.714;2023-08-07T07:42:55;10.95;;;3.28;;
22786;SDS011;63134;52.020;4.714;2023-08-07T07:45:41;12.50;;;3.10;;
22786;SDS011;63134;52.020;4.714;2023-08-07T07:48:26;10.43;;;2.75;;
22786;SDS011;63134;52.020;4.714;2023-08-07T07:51:12;10.85;;;2.92;;
22786;SDS011;63134;52.020;4.714;2023-08-07T07:54:01;16.13;;;2.85;;
22786;SDS011;63134;52.020;4.714;2023-08-07T07:56:59;11.05;;;3.10;;
22786;SDS011;63134;52.020;4.714;2023-08-07T07:59:44;6.20;;;2.05;;
22786;SDS011;63134;52.020;4.714;2023-08-07T08:02:30;14.55;;;3.70;;
22786;SDS011;63134;52.020;4.714;2023-08-07T08:05:16;10.88;;;2.55;;
22786;SDS011;63134;52.020;4.714;2023-08-07T08:08:01;10.98;;;3.05;;
22786;SDS011;63134;52.020;4.714;2023-08-07T08:10:47;11.23;;;2.83;;
22786;SDS011;63134;52.020;4.714;2023-08-07T08:13:33;7.35;;;2.88;;
22786;SDS011;63134;52.020;4.714;2023-08-07T08:16:20;10.55;;;2.85;;
22786;SDS011;63134;52.020;4.714;2023-08-07T08:19:09;9.40;;;2.40;;
22786;SDS011;63134;52.020;4.714;2023-08-07T08:21:54;9.07;;;2.30;;
22786;SDS011;63134;52.020;4.714;2023-08-07T08:24:43;8.20;;;2.35;;
22786;SDS011;63134;52.020;4.714;2023-08-07T08:27:29;9.32;;;2.13;;
22786;SDS011;63134;52.020;4.714;2023-08-07T08:30:14;9.27;;;2.33;;
22786;SDS011;63134;52.020;4.714;2023-08-07T08:33:00;8.38;;;2.83;;
22786;SDS011;63134;52.020;4.714;2023-08-07T08:35:46;7.35;;;2.67;;
22786;SDS011;63134;52.020;4.714;2023-08-07T08:38:31;7.60;;;2.22;;
22786;SDS011;63134;52.020;4.714;2023-08-07T08:41:18;12.63;;;2.53;;
22786;SDS011;63134;52.020;4.714;2023-08-07T08:44:04;10.40;;;2.38;;
22786;SDS011;63134;52.020;4.714;2023-08-07T08:46:51;7.55;;;2.30;;
22786;SDS011;63134;52.020;4.714;2023-08-07T08:49:46;7.88;;;2.53;;
22786;SDS011;63134;52.020;4.714;2023-08-07T08:52:35;8.63;;;2.75;;
22786;SDS011;63134;52.020;4.714;2023-08-07T08:55:22;10.82;;;2.30;;
22786;SDS011;63134;52.020;4.714;2023-08-07T08:58:08;5.82;;;1.80;;
22786;SDS011;63134;52.020;4.714;2023-08-07T09:00:53;9.43;;;2.92;;
22786;SDS011;63134;52.020;4.714;2023-08-07T09:03:39;11.05;;;2.30;;
22786;SDS011;63134;52.020;4.714;2023-08-07T09:06:25;6.40;;;2.42;;
22786;SDS011;63134;52.020;4.714;2023-08-07T09:09:12;7.55;;;2.10;;
22786;SDS011;63134;52.020;4.714;2023-08-07T09:11:59;8.43;;;2.85;;
22786;SDS011;63134;52.020;4.714;2023-08-07T09:14:49;5.93;;;2.00;;
22786;SDS011;63134;52.020;4.714;2023-08-07T09:17:40;9.65;;;2.20;;
22786;SDS011;63134;52.020;4.714;2023-08-07T09:20:31;7.40;;;2.15;;
22786;SDS011;63134;52.020;4.714;2023-08-07T09:23:17;8.90;;;2.28;;
22786;SDS011;63134;52.020;4.714;2023-08-07T09:26:03;9.23;;;2.67;;
22786;SDS011;63134;52.020;4.714;2023-08-07T09:28:50;5.85;;;2.20;;
22786;SDS011;63134;52.020;4.714;2023-08-07T09:31:37;6.93;;;2.22;;
22786;SDS011;63134;52.020;4.714;2023-08-07T09:34:23;8.40;;;2.10;;
22786;SDS011;63134;52.020;4.714;2023-08-07T09:37:09;9.27;;;2.00;;
22786;SDS011;63134;52.020;4.714;2023-08-07T09:39:54;6.80;;;2.33;;
22786;SDS011;63134;52.020;4.714;2023-08-07T09:42:41;8.23;;;1.98;;
22786;SDS011;63134;52.020;4.714;2023-08-07T09:45:30;7.93;;;2.22;;
22786;SDS011;63134;52.020;4.714;2023-08-07T09:48:27;6.55;;;2.20;;
22786;SDS011;63134;52.020;4.714;2023-08-07T09:51:13;5.70;;;2.17;;
22786;SDS011;63134;52.020;4.714;2023-08-07T09:53:58;8.23;;;2.17;;
22786;SDS011;63134;52.020;4.714;2023-08-07T09:56:44;7.78;;;2.65;;
22786;SDS011;63134;52.020;4.714;2023-08-07T09:59:32;7.45;;;2.30;;
22786;SDS011;63134;52.020;4.714;2023-08-07T10:02:19;6.80;;;2.30;;
22786;SDS011;63134;52.020;4.714;2023-08-07T10:05:11;9.02;;;2.00;;
22786;SDS011;63134;52.020;4.714;2023-08-07T10:07:57;5.75;;;2.10;;
22786;SDS011;63134;52.020;4.714;2023-08-07T10:10:46;7.60;;;1.90;;
22786;SDS011;63134;52.020;4.714;2023-08-07T10:13:34;6.45;;;2.00;;
22786;SDS011;63134;52.020;4.714;2023-08-07T10:16:24;5.43;;;1.63;;
22786;SDS011;63134;52.020;4.714;2023-08-07T10:19:12;5.15;;;2.38;;
22786;SDS011;63134;52.020;4.714;2023-08-07T10:21:58;6.63;;;2.15;;
22786;SDS011;63134;52.020;4.714;2023-08-07T10:24:48;5.70;;;2.10;;
22786;SDS011;63134;52.020;4.714;2023-08-07T10:27:36;5.07;;;2.15;;
22786;SDS011;63134;52.020;4.714;2023-08-07T10:30:23;8.02;;;2.25;;
22786;SDS011;63134;52.020;4.714;2023-08-07T10:33:10;5.13;;;2.08;;
22786;SDS011;63134;52.020;4.714;2023-08-07T10:35:58;7.25;;;1.90;;
22786;SDS011;63134;52.020;4.714;2023-08-07T10:38:51;3.55;;;1.70;;
22786;SDS011;63134;52.020;4.714;2023-08-07T10:41:54;5.95;;;1.80;;
22786;SDS011;63134;52.020;4.714;2023-08-07T10:44:47;7.82;;;1.88;;
22786;SDS011;63134;52.020;4.714;2023-08-07T10:47:34;7.88;;;1.83;;
22786;SDS011;63134;52.020;4.714;2023-08-07T10:50:26;5.22;;;1.90;;
22786;SDS011;63134;52.020;4.714;2023-08-07T10:53:27;5.22;;;1.33;;
22786;SDS011;63134;52.020;4.714;2023-08-07T10:56:17;8.52;;;2.15;;
22786;SDS011;63134;52.020;4.714;2023-08-07T10:59:14;5.03;;;2.00;;
22786;SDS011;63134;52.020;4.714;2023-08-07T11:01:59;6.05;;;2.05;;
22786;SDS011;63134;52.020;4.714;2023-08-07T11:04:53;3.60;;;1.60;;
22786;SDS011;63134;52.020;4.714;2023-08-07T11:07:39;4.03;;;1.40;;
22786;SDS011;63134;52.020;4.714;2023-08-07T11:10:29;4.13;;;1.67;;
22786;SDS011;63134;52.020;4.714;2023-08-07T11:13:15;5.28;;;1.80;;
22786;SDS011;63134;52.020;4.714;2023-08-07T11:16:04;8.35;;;2.25;;
22786;SDS011;63134;52.020;4.714;2023-08-07T11:18:50;8.80;;;2.15;;
22786;SDS011;63134;52.020;4.714;2023-08-07T11:21:37;3.20;;;1.77;;
22786;SDS011;63134;52.020;4.714;2023-08-07T11:24:23;6.10;;;2.40;;
22786;SDS011;63134;52.020;4.714;2023-08-07T11:27:11;4.13;;;1.65;;
22786;SDS011;63134;52.020;4.714;2023-08-07T11:29:57;6.80;;;1.80;;
22786;SDS011;63134;52.020;4.714;2023-08-07T11:32:42;5.35;;;1.60;;
22786;SDS011;63134;52.020;4.714;2023-08-07T11:35:28;6.68;;;1.88;;
22786;SDS011;63134;52.020;4.714;2023-08-07T11:38:30;6.78;;;2.03;;
22786;SDS011;63134;52.020;4.714;2023-08-07T11:41:17;3.60;;;1.55;;
22786;SDS011;63134;52.020;4.714;2023-08-07T11:44:04;3.95;;;1.85;;
22786;SDS011;63134;52.020;4.714;2023-08-07T11:46:52;6.60;;;1.77;;
22786;SDS011;63134;52.020;4.714;2023-08-07T11:49:38;6.60;;;1.73;;
22786;SDS011;63134;52.020;4.714;2023-08-07T11:52:24;6.15;;;1.80;;
22786;SDS011;63134;52.020;4.714;2023-08-07T11:55:09;3.88;;;1.55;;
22786;SDS011;63134;52.020;4.714;2023-08-07T11:57:55;3.90;;;1.48;;
22786;SDS011;63134;52.020;4.714;2023-08-07T12:00:43;2.80;;;1.40;;
22786;SDS011;63134;52.020;4.714;2023-08-07T12:03:31;5.40;;;1.83;;
22786;SDS011;63134;52.020;4.714;2023-08-07T12:06:19;3.47;;;1.50;;
22786;SDS011;63134;52.020;4.714;2023-08-07T12:09:05;6.35;;;1.80;;
22786;SDS011;63134;52.020;4.714;2023-08-07T12:11:58;5.30;;;1.60;;
22786;SDS011;63134;52.020;4.714;2023-08-07T12:14:44;7.07;;;1.85;;
22786;SDS011;63134;52.020;4.714;2023-08-07T12:17:32;4.72;;;1.70;;
22786;SDS011;63134;52.020;4.714;2023-08-07T12:20:22;5.57;;;1.50;;
22786;SDS011;63134;52.020;4.714;2023-08-07T12:23:11;5.55;;;2.00;;
22786;SDS011;63134;52.020;4.714;2023-08-07T12:26:02;9.60;;;1.80;;
22786;SDS011;63134;52.020;4.714;2023-08-07T12:28:48;6.97;;;1.65;;
22786;SDS011;63134;52.020;4.714;2023-08-07T12:31:34;5.93;;;2.08;;
22786;SDS011;63134;52.020;4.714;2023-08-07T12:34:23;7.88;;;2.10;;
22786;SDS011;63134;52.020;4.714;2023-08-07T12:37:11;7.10;;;1.92;;
22786;SDS011;63134;52.020;4.714;2023-08-07T12:39:57;3.85;;;1.58;;
22786;SDS011;63134;52.020;4.714;2023-08-07T12:43:04;2.70;;;1.50;;
22786;SDS011;63134;52.020;4.714;2023-08-07T12:45:50;5.80;;;1.83;;
22786;SDS011;63134;52.020;4.714;2023-08-07T12:48:37;5.05;;;1.70;;
22786;SDS011;63134;52.020;4.714;2023-08-07T12:51:24;4.07;;;1.48;;
22786;SDS011;63134;52.020;4.714;2023-08-07T12:54:09;5.38;;;1.80;;
22786;SDS011;63134;52.020;4.714;2023-08-07T12:56:55;3.88;;;1.60;;
22786;SDS011;63134;52.020;4.714;2023-08-07T12:59:41;3.88;;;1.73;;
22786;SDS011;63134;52.020;4.714;2023-08-07T13:02:26;3.70;;;1.60;;
22786;SDS011;63134;52.020;4.714;2023-08-07T13:05:12;4.03;;;1.50;;
22786;SDS011;63134;52.020;4.714;2023-08-07T13:07:59;2.97;;;1.70;;
22786;SDS011;63134;52.020;4.714;2023-08-07T13:10:44;6.40;;;2.00;;
22786;SDS011;63134;52.020;4.714;2023-08-07T13:13:34;6.15;;;2.38;;
22786;SDS011;63134;52.020;4.714;2023-08-07T13:16:19;4.90;;;1.52;;
22786;SDS011;63134;52.020;4.714;2023-08-07T13:19:05;6.43;;;2.10;;
22786;SDS011;63134;52.020;4.714;2023-08-07T13:21:50;5.53;;;1.80;;
22786;SDS011;63134;52.020;4.714;2023-08-07T13:24:36;3.90;;;1.80;;
22786;SDS011;63134;52.020;4.714;2023-08-07T13:27:21;5.38;;;1.90;;
22786;SDS011;63134;52.020;4.714;2023-08-07T13:30:07;3.65;;;2.05;;
22786;SDS011;63134;52.020;4.714;2023-08-07T13:32:53;3.13;;;1.58;;
22786;SDS011;63134;52.020;4.714;2023-08-07T13:35:39;4.43;;;2.28;;
22786;SDS011;63134;52.020;4.714;2023-08-07T13:38:24;9.05;;;2.10;;
22786;SDS011;63134;52.020;4.714;2023-08-07T13:41:10;5.97;;;2.42;;
22786;SDS011;63134;52.020;4.714;2023-08-07T13:43:56;5.93;;;2.47;;
22786;SDS011;63134;52.020;4.714;2023-08-07T13:46:45;4.20;;;1.90;;
22786;SDS011;63134;52.020;4.714;2023-08-07T13:49:31;5.50;;;2.15;;
22786;SDS011;63134;52.020;4.714;2023-08-07T13:52:16;4.95;;;2.30;;
22786;SDS011;63134;52.020;4.714;2023-08-07T13:55:02;6.60;;;2.03;;
22786;SDS011;63134;52.020;4.714;2023-08-07T13:57:48;4.38;;;2.35;;
22786;SDS011;63134;52.020;4.714;2023-08-07T14:00:33;4.05;;;2.17;;
22786;SDS011;63134;52.020;4.714;2023-08-07T14:03:20;6.80;;;2.22;;
22786;SDS011;63134;52.020;4.714;2023-08-07T14:06:06;8.73;;;2.92;;
22786;SDS011;63134;52.020;4.714;2023-08-07T14:08:51;4.88;;;2.45;;
22786;SDS011;63134;52.020;4.714;2023-08-07T14:11:37;3.88;;;2.20;;
22786;SDS011;63134;52.020;4.714;2023-08-07T14:14:23;5.88;;;2.75;;
22786;SDS011;63134;52.020;4.714;2023-08-07T14:17:14;5.65;;;2.50;;
22786;SDS011;63134;52.020;4.714;2023-08-07T14:19:59;4.20;;;2.65;;
22786;SDS011;63134;52.020;4.714;2023-08-07T14:22:45;3.95;;;2.63;;
22786;SDS011;63134;52.020;4.714;2023-08-07T14:25:30;3.75;;;2.58;;
22786;SDS011;63134;52.020;4.714;2023-08-07T14:28:16;9.55;;;2.95;;
22786;SDS011;63134;52.020;4.714;2023-08-07T14:31:05;5.13;;;2.67;;
22786;SDS011;63134;52.020;4.714;2023-08-07T14:34:06;4.47;;;2.33;;
22786;SDS011;63134;52.020;4.714;2023-08-07T14:36:52;4.78;;;2.33;;
22786;SDS011;63134;52.020;4.714;2023-08-07T14:39:39;3.45;;;2.53;;
22786;SDS011;63134;52.020;4.714;2023-08-07T14:42:25;5.50;;;2.95;;
22786;SDS011;63134;52.020;4.714;2023-08-07T14:45:11;4.25;;;2.45;;
22786;SDS011;63134;52.020;4.714;2023-08-07T14:47:56;3.95;;;2.60;;
22786;SDS011;63134;52.020;4.714;2023-08-07T14:50:41;3.33;;;2.35;;
22786;SDS011;63134;52.020;4.714;2023-08-07T14:53:27;6.40;;;2.40;;
22786;SDS011;63134;52.020;4.714;2023-08-07T14:56:13;4.78;;;2.20;;
22786;SDS011;63134;52.020;4.714;2023-08-07T14:59:01;9.13;;;2.05;;
22786;SDS011;63134;52.020;4.714;2023-08-07T15:01:47;3.50;;;1.90;;
22786;SDS011;63134;52.020;4.714;2023-08-07T15:04:33;3.85;;;1.92;;
22786;SDS011;63134;52.020;4.714;2023-08-07T15:07:18;4.05;;;1.60;;
22786;SDS011;63134;52.020;4.714;2023-08-07T15:10:04;1.98;;;1.30;;
22786;SDS011;63134;52.020;4.714;2023-08-07T15:12:50;3.30;;;1.52;;
22786;SDS011;63134;52.020;4.714;2023-08-07T15:15:35;3.00;;;1.50;;
22786;SDS011;63134;52.020;4.714;2023-08-07T15:18:21;4.57;;;1.90;;
22786;SDS011;63134;52.020;4.714;2023-08-07T15:21:09;2.53;;;1.65;;
22786;SDS011;63134;52.020;4.714;2023-08-07T15:23:55;2.25;;;1.40;;
22786;SDS011;63134;52.020;4.714;2023-08-07T15:26:41;3.65;;;1.50;;
22786;SDS011;63134;52.020;4.714;2023-08-07T15:29:26;3.28;;;1.23;;
22786;SDS011;63134;52.020;4.714;2023-08-07T15:32:12;2.25;;;1.30;;
22786;SDS011;63134;52.020;4.714;2023-08-07T15:35:04;3.35;;;1.30;;
22786;SDS011;63134;52.020;4.714;2023-08-07T15:37:50;1.55;;;1.40;;
22786;SDS011;63134;52.020;4.714;2023-08-07T15:40:39;3.28;;;1.40;;
22786;SDS011;63134;52.020;4.714;2023-08-07T15:43:25;1.98;;;1.48;;
22786;SDS011;63134;52.020;4.714;2023-08-07T15:46:10;2.67;;;1.20;;
22786;SDS011;63134;52.020;4.714;2023-08-07T15:48:56;1.77;;;1.10;;
22786;SDS011;63134;52.020;4.714;2023-08-07T15:51:41;2.55;;;1.52;;
22786;SDS011;63134;52.020;4.714;2023-08-07T15:54:26;3.50;;;1.33;;
22786;SDS011;63134;52.020;4.714;2023-08-07T15:57:12;1.65;;;1.00;;
22786;SDS011;63134;52.020;4.714;2023-08-07T15:59:58;1.65;;;0.88;;
22786;SDS011;63134;52.020;4.714;2023-08-07T16:02:43;1.23;;;1.02;;
22786;SDS011;63134;52.020;4.714;2023-08-07T16:05:33;1.77;;;1.02;;
22786;SDS011;63134;52.020;4.714;2023-08-07T16:08:19;1.88;;;0.75;;
22786;SDS011;63134;52.020;4.714;2023-08-07T16:11:05;2.33;;;0.90;;
22786;SDS011;63134;52.020;4.714;2023-08-07T16:13:51;2.97;;;0.90;;
22786;SDS011;63134;52.020;4.714;2023-08-07T16:16:39;1.98;;;1.10;;
22786;SDS011;63134;52.020;4.714;2023-08-07T16:19:29;1.55;;;0.90;;
22786;SDS011;63134;52.020;4.714;2023-08-07T16:22:14;2.38;;;1.10;;
22786;SDS011;63134;52.020;4.714;2023-08-07T16:25:00;1.50;;;0.90;;
22786;SDS011;63134;52.020;4.714;2023-08-07T16:27:46;1.77;;;0.90;;
22786;SDS011;63134;52.020;4.714;2023-08-07T16:30:34;2.13;;;0.95;;
22786;SDS011;63134;52.020;4.714;2023-08-07T16:33:22;1.65;;;0.80;;
22786;SDS011;63134;52.020;4.714;2023-08-07T16:36:08;3.05;;;1.20;;
22786;SDS011;63134;52.020;4.714;2023-08-07T16:38:53;1.67;;;1.00;;
22786;SDS011;63134;52.020;4.714;2023-08-07T16:41:39;3.00;;;1.60;;
22786;SDS011;63134;52.020;4.714;2023-08-07T16:44:30;1.88;;;1.05;;